sensor_id;sensor_type;location;lat;lon;timestamp;P1;durP1;ratioP1;P2;durP2;ratioP2
16770;SDS011;8503;52.472;13.344;2023-06-14T00:00:02;3.17;;;2.38;;
16770;SDS011;8503;52.472;13.344;2023-06-14T00:00:50;4.15;;;2.60;;
16770;SDS011;8503;52.472;13.344;2023-06-14T00:01:34;4.85;;;2.17;;
16770;SDS011;8503;52.472;13.344;2023-06-14T00:02:16;4.32;;;2.20;;
16770;SDS011;8503;52.472;13.344;2023-06-14T00:03:00;3.10;;;1.85;;
16770;SDS011;8503;52.472;13.344;2023-06-14T00:03:45;3.40;;;1.73;;
16770;SDS011;8503;52.472;13.344;2023-06-14T00:04:29;3.22;;;1.63;;
16770;SDS011;8503;52.472;13.344;2023-06-14T00:05:12;2.80;;;1.73;;
16770;SDS011;8503;52.472;13.344;2023-06-14T00:05:56;5.88;;;2.05;;
16770;SDS011;8503;52.472;13.344;2023-06-14T00:06:39;2.97;;;2.28;;
16770;SDS011;8503;52.472;13.344;2023-06-14T00:07:33;4.38;;;2.30;;
16770;SDS011;8503;52.472;13.344;2023-06-14T00:08:20;3.17;;;2.08;;
16770;SDS011;8503;52.472;13.344;2023-06-14T00:09:04;3.55;;;2.22;;
16770;SDS011;8503;52.472;13.344;2023-06-14T00:09:49;3.70;;;2.05;;
16770;SDS011;8503;52.472;13.344;2023-06-14T00:10:32;3.97;;;2.85;;
16770;SDS011;8503;52.472;13.344;2023-06-14T00:11:16;3.70;;;2.53;;
16770;SDS011;8503;52.472;13.344;2023-06-14T00:11:59;4.18;;;2.30;;
16770;SDS011;8503;52.472;13.344;2023-06-14T00:12:43;2.50;;;1.65;;
16770;SDS011;8503;52.472;13.344;2023-06-14T00:13:26;3.35;;;2.22;;
16770;SDS011;8503;52.472;13.344;2023-06-14T00:14:10;3.03;;;2.03;;
16770;SDS011;8503;52.472;13.344;2023-06-14T00:14:53;5.03;;;2.58;;
16770;SDS011;8503;52.472;13.344;2023-06-14T00:15:37;5.70;;;2.80;;
16770;SDS011;8503;52.472;13.344;2023-06-14T00:16:21;8.25;;;2.58;;
16770;SDS011;8503;52.472;13.344;2023-06-14T00:17:05;3.97;;;2.15;;
16770;SDS011;8503;52.472;13.344;2023-06-14T00:17:48;3.15;;;2.40;;
16770;SDS011;8503;52.472;13.344;2023-06-14T00:18:32;3.47;;;2.50;;
16770;SDS011;8503;52.472;13.344;2023-06-14T00:19:15;8.07;;;2.60;;
16770;SDS011;8503;52.472;13.344;2023-06-14T00:19:59;2.85;;;1.98;;
16770;SDS011;8503;52.472;13.344;2023-06-14T00:20:46;6.75;;;2.58;;
16770;SDS011;8503;52.472;13.344;2023-06-14T00:21:30;3.22;;;2.30;;
16770;SDS011;8503;52.472;13.344;2023-06-14T00:22:13;4.00;;;1.92;;
16770;SDS011;8503;52.472;13.344;2023-06-14T00:22:56;4.15;;;2.33;;
16770;SDS011;8503;52.472;13.344;2023-06-14T00:23:40;4.30;;;2.70;;
16770;SDS011;8503;52.472;13.344;2023-06-14T00:24:22;3.55;;;2.10;;
16770;SDS011;8503;52.472;13.344;2023-06-14T00:25:06;4.05;;;2.83;;
16770;SDS011;8503;52.472;13.344;2023-06-14T00:26:08;2.50;;;1.30;;
16770;SDS011;8503;52.472;13.344;2023-06-14T00:26:51;8.18;;;1.92;;
16770;SDS011;8503;52.472;13.344;2023-06-14T00:27:34;4.40;;;2.85;;
16770;SDS011;8503;52.472;13.344;2023-06-14T00:28:17;5.63;;;3.00;;
16770;SDS011;8503;52.472;13.344;2023-06-14T00:29:01;2.97;;;1.95;;
16770;SDS011;8503;52.472;13.344;2023-06-14T00:29:44;3.15;;;1.88;;
16770;SDS011;8503;52.472;13.344;2023-06-14T00:30:27;5.50;;;2.42;;
16770;SDS011;8503;52.472;13.344;2023-06-14T00:31:12;8.38;;;3.22;;
16770;SDS011;8503;52.472;13.344;2023-06-14T00:31:57;1.85;;;1.27;;
16770;SDS011;8503;52.472;13.344;2023-06-14T00:32:39;5.80;;;2.78;;
16770;SDS011;8503;52.472;13.344;2023-06-14T00:33:24;2.63;;;1.70;;
16770;SDS011;8503;52.472;13.344;2023-06-14T00:34:07;4.72;;;2.38;;
16770;SDS011;8503;52.472;13.344;2023-06-14T00:34:50;2.60;;;1.88;;
16770;SDS011;8503;52.472;13.344;2023-06-14T00:35:34;3.63;;;2.28;;
16770;SDS011;8503;52.472;13.344;2023-06-14T00:36:17;5.43;;;2.40;;
16770;SDS011;8503;52.472;13.344;2023-06-14T00:37:00;6.28;;;2.40;;
16770;SDS011;8503;52.472;13.344;2023-06-14T00:37:44;2.55;;;1.85;;
16770;SDS011;8503;52.472;13.344;2023-06-14T00:38:27;3.30;;;2.38;;
16770;SDS011;8503;52.472;13.344;2023-06-14T00:39:10;6.38;;;1.73;;
16770;SDS011;8503;52.472;13.344;2023-06-14T00:39:54;2.75;;;2.15;;
16770;SDS011;8503;52.472;13.344;2023-06-14T00:40:37;6.55;;;1.63;;
16770;SDS011;8503;52.472;13.344;2023-06-14T00:41:20;4.45;;;2.65;;
16770;SDS011;8503;52.472;13.344;2023-06-14T00:42:04;4.80;;;2.78;;
16770;SDS011;8503;52.472;13.344;2023-06-14T00:42:47;6.85;;;2.65;;
16770;SDS011;8503;52.472;13.344;2023-06-14T00:43:31;5.07;;;2.10;;
16770;SDS011;8503;52.472;13.344;2023-06-14T00:44:16;5.13;;;2.92;;
16770;SDS011;8503;52.472;13.344;2023-06-14T00:44:59;4.82;;;2.67;;
16770;SDS011;8503;52.472;13.344;2023-06-14T00:45:43;4.93;;;2.33;;
16770;SDS011;8503;52.472;13.344;2023-06-14T00:46:26;5.47;;;2.92;;
16770;SDS011;8503;52.472;13.344;2023-06-14T00:47:11;3.20;;;1.15;;
16770;SDS011;8503;52.472;13.344;2023-06-14T00:47:54;5.85;;;2.97;;
16770;SDS011;8503;52.472;13.344;2023-06-14T00:48:38;5.43;;;3.00;;
16770;SDS011;8503;52.472;13.344;2023-06-14T00:49:22;5.60;;;2.72;;
16770;SDS011;8503;52.472;13.344;2023-06-14T00:50:06;6.43;;;2.20;;
16770;SDS011;8503;52.472;13.344;2023-06-14T00:50:51;4.10;;;2.20;;
16770;SDS011;8503;52.472;13.344;2023-06-14T00:51:34;3.47;;;2.28;;
16770;SDS011;8503;52.472;13.344;2023-06-14T00:52:18;4.68;;;2.65;;
16770;SDS011;8503;52.472;13.344;2023-06-14T00:53:03;3.88;;;2.13;;
16770;SDS011;8503;52.472;13.344;2023-06-14T00:53:48;6.28;;;3.28;;
16770;SDS011;8503;52.472;13.344;2023-06-14T00:54:31;3.60;;;1.70;;
16770;SDS011;8503;52.472;13.344;2023-06-14T00:55:13;7.07;;;2.75;;
16770;SDS011;8503;52.472;13.344;2023-06-14T00:55:57;4.97;;;2.72;;
16770;SDS011;8503;52.472;13.344;2023-06-14T00:56:40;5.30;;;2.65;;
16770;SDS011;8503;52.472;13.344;2023-06-14T00:57:25;5.50;;;2.90;;
16770;SDS011;8503;52.472;13.344;2023-06-14T00:58:10;5.22;;;2.97;;
16770;SDS011;8503;52.472;13.344;2023-06-14T00:58:53;2.85;;;1.65;;
16770;SDS011;8503;52.472;13.344;2023-06-14T00:59:45;4.05;;;2.80;;
16770;SDS011;8503;52.472;13.344;2023-06-14T01:00:30;4.82;;;2.30;;
16770;SDS011;8503;52.472;13.344;2023-06-14T01:01:12;3.95;;;2.33;;
16770;SDS011;8503;52.472;13.344;2023-06-14T01:01:55;8.07;;;2.70;;
16770;SDS011;8503;52.472;13.344;2023-06-14T01:02:40;5.30;;;2.83;;
16770;SDS011;8503;52.472;13.344;2023-06-14T01:03:24;6.20;;;3.13;;
16770;SDS011;8503;52.472;13.344;2023-06-14T01:04:09;4.13;;;3.10;;
16770;SDS011;8503;52.472;13.344;2023-06-14T01:04:53;4.53;;;3.10;;
16770;SDS011;8503;52.472;13.344;2023-06-14T01:05:36;8.32;;;3.53;;
16770;SDS011;8503;52.472;13.344;2023-06-14T01:06:23;6.45;;;1.88;;
16770;SDS011;8503;52.472;13.344;2023-06-14T01:07:20;5.90;;;3.40;;
16770;SDS011;8503;52.472;13.344;2023-06-14T01:08:17;2.30;;;1.95;;
16770;SDS011;8503;52.472;13.344;2023-06-14T01:09:09;4.13;;;2.40;;
16770;SDS011;8503;52.472;13.344;2023-06-14T01:10:11;8.10;;;2.83;;
16770;SDS011;8503;52.472;13.344;2023-06-14T01:11:10;3.63;;;2.72;;
16770;SDS011;8503;52.472;13.344;2023-06-14T01:12:03;6.60;;;3.85;;
16770;SDS011;8503;52.472;13.344;2023-06-14T01:12:56;8.02;;;3.67;;
16770;SDS011;8503;52.472;13.344;2023-06-14T01:13:48;5.75;;;3.30;;
16770;SDS011;8503;52.472;13.344;2023-06-14T01:14:32;7.03;;;3.50;;
16770;SDS011;8503;52.472;13.344;2023-06-14T01:15:17;5.18;;;2.28;;
16770;SDS011;8503;52.472;13.344;2023-06-14T01:16:02;5.45;;;3.30;;
16770;SDS011;8503;52.472;13.344;2023-06-14T01:16:46;6.90;;;3.55;;
16770;SDS011;8503;52.472;13.344;2023-06-14T01:17:34;5.47;;;3.35;;
16770;SDS011;8503;52.472;13.344;2023-06-14T01:18:23;4.13;;;2.08;;
16770;SDS011;8503;52.472;13.344;2023-06-14T01:19:55;2.20;;;1.60;;
16770;SDS011;8503;52.472;13.344;2023-06-14T01:20:39;6.18;;;3.75;;
16770;SDS011;8503;52.472;13.344;2023-06-14T01:21:22;5.78;;;3.30;;
16770;SDS011;8503;52.472;13.344;2023-06-14T01:22:06;4.65;;;2.85;;
16770;SDS011;8503;52.472;13.344;2023-06-14T01:22:51;6.70;;;3.47;;
16770;SDS011;8503;52.472;13.344;2023-06-14T01:23:35;7.75;;;3.88;;
16770;SDS011;8503;52.472;13.344;2023-06-14T01:24:19;7.80;;;3.58;;
16770;SDS011;8503;52.472;13.344;2023-06-14T01:25:07;6.18;;;3.97;;
16770;SDS011;8503;52.472;13.344;2023-06-14T01:25:50;5.22;;;3.63;;
16770;SDS011;8503;52.472;13.344;2023-06-14T01:26:34;7.28;;;3.67;;
16770;SDS011;8503;52.472;13.344;2023-06-14T01:27:19;7.60;;;3.90;;
16770;SDS011;8503;52.472;13.344;2023-06-14T01:28:03;6.10;;;3.90;;
16770;SDS011;8503;52.472;13.344;2023-06-14T01:28:51;7.97;;;4.10;;
16770;SDS011;8503;52.472;13.344;2023-06-14T01:29:37;7.68;;;4.15;;
16770;SDS011;8503;52.472;13.344;2023-06-14T01:30:27;6.25;;;2.83;;
16770;SDS011;8503;52.472;13.344;2023-06-14T01:31:16;5.22;;;3.85;;
16770;SDS011;8503;52.472;13.344;2023-06-14T01:32:03;4.85;;;3.15;;
16770;SDS011;8503;52.472;13.344;2023-06-14T01:32:47;5.95;;;3.53;;
16770;SDS011;8503;52.472;13.344;2023-06-14T01:33:32;5.03;;;3.40;;
16770;SDS011;8503;52.472;13.344;2023-06-14T01:34:18;8.63;;;3.97;;
16770;SDS011;8503;52.472;13.344;2023-06-14T01:35:01;7.40;;;4.50;;
16770;SDS011;8503;52.472;13.344;2023-06-14T01:35:46;8.85;;;4.25;;
16770;SDS011;8503;52.472;13.344;2023-06-14T01:36:31;7.03;;;4.00;;
16770;SDS011;8503;52.472;13.344;2023-06-14T01:37:14;9.10;;;4.57;;
16770;SDS011;8503;52.472;13.344;2023-06-14T01:38:00;5.35;;;4.43;;
16770;SDS011;8503;52.472;13.344;2023-06-14T01:38:44;7.72;;;3.70;;
16770;SDS011;8503;52.472;13.344;2023-06-14T01:39:29;7.68;;;4.35;;
16770;SDS011;8503;52.472;13.344;2023-06-14T01:40:13;5.32;;;3.95;;
16770;SDS011;8503;52.472;13.344;2023-06-14T01:40:58;8.05;;;4.18;;
16770;SDS011;8503;52.472;13.344;2023-06-14T01:41:44;7.97;;;4.65;;
16770;SDS011;8503;52.472;13.344;2023-06-14T01:42:29;8.45;;;4.18;;
16770;SDS011;8503;52.472;13.344;2023-06-14T01:43:14;6.05;;;3.40;;
16770;SDS011;8503;52.472;13.344;2023-06-14T01:43:59;8.77;;;4.30;;
16770;SDS011;8503;52.472;13.344;2023-06-14T01:44:43;6.75;;;3.88;;
16770;SDS011;8503;52.472;13.344;2023-06-14T01:45:28;9.70;;;4.10;;
16770;SDS011;8503;52.472;13.344;2023-06-14T01:46:11;5.72;;;2.70;;
16770;SDS011;8503;52.472;13.344;2023-06-14T01:46:57;7.60;;;4.13;;
16770;SDS011;8503;52.472;13.344;2023-06-14T01:47:41;6.70;;;3.88;;
16770;SDS011;8503;52.472;13.344;2023-06-14T01:48:25;5.03;;;3.03;;
16770;SDS011;8503;52.472;13.344;2023-06-14T01:49:09;6.57;;;4.20;;
16770;SDS011;8503;52.472;13.344;2023-06-14T01:49:53;7.18;;;4.65;;
16770;SDS011;8503;52.472;13.344;2023-06-14T01:50:44;7.30;;;3.15;;
16770;SDS011;8503;52.472;13.344;2023-06-14T01:51:27;8.38;;;4.20;;
16770;SDS011;8503;52.472;13.344;2023-06-14T01:52:10;6.80;;;4.10;;
16770;SDS011;8503;52.472;13.344;2023-06-14T01:52:54;7.22;;;3.67;;
16770;SDS011;8503;52.472;13.344;2023-06-14T01:53:38;7.68;;;3.40;;
16770;SDS011;8503;52.472;13.344;2023-06-14T01:54:23;8.43;;;4.25;;
16770;SDS011;8503;52.472;13.344;2023-06-14T01:55:07;9.32;;;4.43;;
16770;SDS011;8503;52.472;13.344;2023-06-14T01:55:51;6.88;;;4.55;;
16770;SDS011;8503;52.472;13.344;2023-06-14T01:56:35;4.85;;;3.50;;
16770;SDS011;8503;52.472;13.344;2023-06-14T01:57:19;13.15;;;4.20;;
16770;SDS011;8503;52.472;13.344;2023-06-14T01:58:02;11.35;;;4.45;;
16770;SDS011;8503;52.472;13.344;2023-06-14T01:58:46;9.30;;;4.07;;
16770;SDS011;8503;52.472;13.344;2023-06-14T01:59:30;8.65;;;4.15;;
16770;SDS011;8503;52.472;13.344;2023-06-14T02:00:13;6.88;;;3.90;;
16770;SDS011;8503;52.472;13.344;2023-06-14T02:00:59;5.35;;;3.63;;
16770;SDS011;8503;52.472;13.344;2023-06-14T02:01:42;7.45;;;4.63;;
16770;SDS011;8503;52.472;13.344;2023-06-14T02:03:11;5.75;;;3.50;;
16770;SDS011;8503;52.472;13.344;2023-06-14T02:03:54;7.55;;;4.28;;
16770;SDS011;8503;52.472;13.344;2023-06-14T02:04:38;6.72;;;3.72;;
16770;SDS011;8503;52.472;13.344;2023-06-14T02:05:21;7.20;;;4.30;;
16770;SDS011;8503;52.472;13.344;2023-06-14T02:06:05;7.72;;;3.78;;
16770;SDS011;8503;52.472;13.344;2023-06-14T02:06:47;6.03;;;3.90;;
16770;SDS011;8503;52.472;13.344;2023-06-14T02:07:30;7.60;;;3.78;;
16770;SDS011;8503;52.472;13.344;2023-06-14T02:08:14;6.75;;;4.75;;
16770;SDS011;8503;52.472;13.344;2023-06-14T02:08:58;5.70;;;3.83;;
16770;SDS011;8503;52.472;13.344;2023-06-14T02:09:43;10.02;;;4.82;;
16770;SDS011;8503;52.472;13.344;2023-06-14T02:10:25;6.55;;;4.53;;
16770;SDS011;8503;52.472;13.344;2023-06-14T02:11:09;9.32;;;3.95;;
16770;SDS011;8503;52.472;13.344;2023-06-14T02:11:52;6.13;;;3.60;;
16770;SDS011;8503;52.472;13.344;2023-06-14T02:12:38;6.53;;;4.10;;
16770;SDS011;8503;52.472;13.344;2023-06-14T02:13:20;7.28;;;4.28;;
16770;SDS011;8503;52.472;13.344;2023-06-14T02:14:04;10.80;;;4.28;;
16770;SDS011;8503;52.472;13.344;2023-06-14T02:14:48;8.32;;;4.30;;
16770;SDS011;8503;52.472;13.344;2023-06-14T02:15:32;7.90;;;4.07;;
16770;SDS011;8503;52.472;13.344;2023-06-14T02:16:15;4.72;;;3.33;;
16770;SDS011;8503;52.472;13.344;2023-06-14T02:16:58;6.30;;;4.50;;
16770;SDS011;8503;52.472;13.344;2023-06-14T02:17:43;8.52;;;4.45;;
16770;SDS011;8503;52.472;13.344;2023-06-14T02:18:26;7.95;;;5.13;;
16770;SDS011;8503;52.472;13.344;2023-06-14T02:19:10;5.70;;;4.00;;
16770;SDS011;8503;52.472;13.344;2023-06-14T02:19:52;8.77;;;3.90;;
16770;SDS011;8503;52.472;13.344;2023-06-14T02:20:35;9.85;;;5.10;;
16770;SDS011;8503;52.472;13.344;2023-06-14T02:21:19;9.25;;;4.95;;
16770;SDS011;8503;52.472;13.344;2023-06-14T02:22:02;8.63;;;4.65;;
16770;SDS011;8503;52.472;13.344;2023-06-14T02:22:45;10.57;;;4.63;;
16770;SDS011;8503;52.472;13.344;2023-06-14T02:23:29;8.60;;;4.55;;
16770;SDS011;8503;52.472;13.344;2023-06-14T02:24:17;6.13;;;3.85;;
16770;SDS011;8503;52.472;13.344;2023-06-14T02:25:01;6.57;;;3.90;;
16770;SDS011;8503;52.472;13.344;2023-06-14T02:25:44;4.20;;;2.45;;
16770;SDS011;8503;52.472;13.344;2023-06-14T02:26:28;6.20;;;3.67;;
16770;SDS011;8503;52.472;13.344;2023-06-14T02:27:11;7.38;;;4.50;;
16770;SDS011;8503;52.472;13.344;2023-06-14T02:27:54;6.15;;;4.00;;
16770;SDS011;8503;52.472;13.344;2023-06-14T02:28:38;1.70;;;1.20;;
16770;SDS011;8503;52.472;13.344;2023-06-14T02:29:21;4.78;;;3.10;;
16770;SDS011;8503;52.472;13.344;2023-06-14T02:30:04;4.00;;;3.60;;
16770;SDS011;8503;52.472;13.344;2023-06-14T02:30:49;5.63;;;3.92;;
16770;SDS011;8503;52.472;13.344;2023-06-14T02:31:33;6.93;;;4.30;;
16770;SDS011;8503;52.472;13.344;2023-06-14T02:32:16;9.68;;;4.95;;
16770;SDS011;8503;52.472;13.344;2023-06-14T02:33:00;4.97;;;2.80;;
16770;SDS011;8503;52.472;13.344;2023-06-14T02:33:44;7.90;;;4.68;;
16770;SDS011;8503;52.472;13.344;2023-06-14T02:34:28;8.20;;;3.92;;
16770;SDS011;8503;52.472;13.344;2023-06-14T02:35:10;5.78;;;4.50;;
16770;SDS011;8503;52.472;13.344;2023-06-14T02:35:54;6.40;;;3.97;;
16770;SDS011;8503;52.472;13.344;2023-06-14T02:36:38;8.43;;;4.88;;
16770;SDS011;8503;52.472;13.344;2023-06-14T02:37:22;8.50;;;4.80;;
16770;SDS011;8503;52.472;13.344;2023-06-14T02:38:05;5.30;;;3.10;;
16770;SDS011;8503;52.472;13.344;2023-06-14T02:38:49;8.57;;;4.63;;
16770;SDS011;8503;52.472;13.344;2023-06-14T02:39:33;8.27;;;5.13;;
16770;SDS011;8503;52.472;13.344;2023-06-14T02:40:16;6.82;;;4.72;;
16770;SDS011;8503;52.472;13.344;2023-06-14T02:41:00;8.40;;;4.35;;
16770;SDS011;8503;52.472;13.344;2023-06-14T02:41:43;6.57;;;4.28;;
16770;SDS011;8503;52.472;13.344;2023-06-14T02:42:25;5.60;;;3.72;;
16770;SDS011;8503;52.472;13.344;2023-06-14T02:43:10;7.40;;;4.72;;
16770;SDS011;8503;52.472;13.344;2023-06-14T02:43:53;9.40;;;4.78;;
16770;SDS011;8503;52.472;13.344;2023-06-14T02:44:37;9.55;;;4.63;;
16770;SDS011;8503;52.472;13.344;2023-06-14T02:45:20;7.20;;;4.57;;
16770;SDS011;8503;52.472;13.344;2023-06-14T02:46:04;8.13;;;4.63;;
16770;SDS011;8503;52.472;13.344;2023-06-14T02:46:46;10.45;;;4.55;;
16770;SDS011;8503;52.472;13.344;2023-06-14T02:47:29;9.48;;;5.43;;
16770;SDS011;8503;52.472;13.344;2023-06-14T02:48:16;8.88;;;4.40;;
16770;SDS011;8503;52.472;13.344;2023-06-14T02:48:59;9.45;;;4.97;;
16770;SDS011;8503;52.472;13.344;2023-06-14T02:49:43;9.23;;;4.65;;
16770;SDS011;8503;52.472;13.344;2023-06-14T02:50:27;6.32;;;5.00;;
16770;SDS011;8503;52.472;13.344;2023-06-14T02:51:11;7.20;;;4.30;;
16770;SDS011;8503;52.472;13.344;2023-06-14T02:51:54;6.90;;;4.15;;
16770;SDS011;8503;52.472;13.344;2023-06-14T02:52:38;8.65;;;5.78;;
16770;SDS011;8503;52.472;13.344;2023-06-14T02:53:23;5.20;;;2.65;;
16770;SDS011;8503;52.472;13.344;2023-06-14T02:54:06;8.55;;;5.40;;
16770;SDS011;8503;52.472;13.344;2023-06-14T02:54:51;11.10;;;4.75;;
16770;SDS011;8503;52.472;13.344;2023-06-14T02:55:35;6.03;;;3.40;;
16770;SDS011;8503;52.472;13.344;2023-06-14T02:56:21;8.48;;;4.68;;
16770;SDS011;8503;52.472;13.344;2023-06-14T02:57:07;8.27;;;4.72;;
16770;SDS011;8503;52.472;13.344;2023-06-14T02:57:52;9.63;;;4.93;;
16770;SDS011;8503;52.472;13.344;2023-06-14T02:58:36;10.07;;;4.60;;
16770;SDS011;8503;52.472;13.344;2023-06-14T02:59:20;9.02;;;5.10;;
16770;SDS011;8503;52.472;13.344;2023-06-14T03:00:06;7.97;;;4.10;;
16770;SDS011;8503;52.472;13.344;2023-06-14T03:00:55;9.05;;;4.88;;
16770;SDS011;8503;52.472;13.344;2023-06-14T03:01:38;8.80;;;4.70;;
16770;SDS011;8503;52.472;13.344;2023-06-14T03:02:23;7.93;;;5.07;;
16770;SDS011;8503;52.472;13.344;2023-06-14T03:03:06;8.15;;;5.05;;
16770;SDS011;8503;52.472;13.344;2023-06-14T03:03:56;8.43;;;4.15;;
16770;SDS011;8503;52.472;13.344;2023-06-14T03:04:39;7.82;;;4.22;;
16770;SDS011;8503;52.472;13.344;2023-06-14T03:05:24;10.32;;;5.47;;
16770;SDS011;8503;52.472;13.344;2023-06-14T03:06:09;6.85;;;5.32;;
16770;SDS011;8503;52.472;13.344;2023-06-14T03:06:54;13.00;;;5.05;;
16770;SDS011;8503;52.472;13.344;2023-06-14T03:07:37;10.82;;;5.47;;
16770;SDS011;8503;52.472;13.344;2023-06-14T03:08:22;9.90;;;4.63;;
16770;SDS011;8503;52.472;13.344;2023-06-14T03:09:09;10.15;;;4.45;;
16770;SDS011;8503;52.472;13.344;2023-06-14T03:09:55;7.72;;;5.35;;
16770;SDS011;8503;52.472;13.344;2023-06-14T03:10:38;5.50;;;4.45;;
16770;SDS011;8503;52.472;13.344;2023-06-14T03:11:22;8.50;;;4.82;;
16770;SDS011;8503;52.472;13.344;2023-06-14T03:12:05;9.73;;;5.15;;
16770;SDS011;8503;52.472;13.344;2023-06-14T03:12:50;10.77;;;4.95;;
16770;SDS011;8503;52.472;13.344;2023-06-14T03:13:34;7.03;;;4.53;;
16770;SDS011;8503;52.472;13.344;2023-06-14T03:14:18;6.40;;;4.28;;
16770;SDS011;8503;52.472;13.344;2023-06-14T03:15:02;10.48;;;4.70;;
16770;SDS011;8503;52.472;13.344;2023-06-14T03:15:46;7.03;;;5.22;;
16770;SDS011;8503;52.472;13.344;2023-06-14T03:16:31;10.63;;;5.40;;
16770;SDS011;8503;52.472;13.344;2023-06-14T03:17:14;13.50;;;5.45;;
16770;SDS011;8503;52.472;13.344;2023-06-14T03:17:58;7.30;;;4.65;;
16770;SDS011;8503;52.472;13.344;2023-06-14T03:18:41;7.13;;;5.05;;
16770;SDS011;8503;52.472;13.344;2023-06-14T03:19:25;8.60;;;4.07;;
16770;SDS011;8503;52.472;13.344;2023-06-14T03:20:08;8.38;;;4.70;;
16770;SDS011;8503;52.472;13.344;2023-06-14T03:20:52;9.05;;;5.47;;
16770;SDS011;8503;52.472;13.344;2023-06-14T03:21:35;9.57;;;5.28;;
16770;SDS011;8503;52.472;13.344;2023-06-14T03:22:20;7.43;;;4.30;;
16770;SDS011;8503;52.472;13.344;2023-06-14T03:23:03;11.55;;;5.38;;
16770;SDS011;8503;52.472;13.344;2023-06-14T03:23:48;8.52;;;4.13;;
16770;SDS011;8503;52.472;13.344;2023-06-14T03:24:32;11.40;;;5.55;;
16770;SDS011;8503;52.472;13.344;2023-06-14T03:25:19;7.00;;;4.65;;
16770;SDS011;8503;52.472;13.344;2023-06-14T03:26:04;7.07;;;4.93;;
16770;SDS011;8503;52.472;13.344;2023-06-14T03:26:46;7.88;;;4.97;;
16770;SDS011;8503;52.472;13.344;2023-06-14T03:27:30;7.22;;;5.00;;
16770;SDS011;8503;52.472;13.344;2023-06-14T03:28:13;8.43;;;5.20;;
16770;SDS011;8503;52.472;13.344;2023-06-14T03:28:56;6.00;;;4.43;;
16770;SDS011;8503;52.472;13.344;2023-06-14T03:29:39;11.48;;;5.88;;
16770;SDS011;8503;52.472;13.344;2023-06-14T03:30:22;10.05;;;5.70;;
16770;SDS011;8503;52.472;13.344;2023-06-14T03:31:06;8.82;;;5.00;;
16770;SDS011;8503;52.472;13.344;2023-06-14T03:31:56;9.30;;;4.50;;
16770;SDS011;8503;52.472;13.344;2023-06-14T03:32:41;7.97;;;5.03;;
16770;SDS011;8503;52.472;13.344;2023-06-14T03:33:24;7.07;;;5.47;;
16770;SDS011;8503;52.472;13.344;2023-06-14T03:34:08;7.07;;;4.82;;
16770;SDS011;8503;52.472;13.344;2023-06-14T03:34:51;9.95;;;5.97;;
16770;SDS011;8503;52.472;13.344;2023-06-14T03:35:35;8.10;;;5.32;;
16770;SDS011;8503;52.472;13.344;2023-06-14T03:36:18;9.32;;;4.88;;
16770;SDS011;8503;52.472;13.344;2023-06-14T03:37:01;8.05;;;4.93;;
16770;SDS011;8503;52.472;13.344;2023-06-14T03:37:44;9.05;;;5.90;;
16770;SDS011;8503;52.472;13.344;2023-06-14T03:38:27;8.52;;;5.40;;
16770;SDS011;8503;52.472;13.344;2023-06-14T03:39:11;7.50;;;4.80;;
16770;SDS011;8503;52.472;13.344;2023-06-14T03:39:55;7.68;;;4.88;;
16770;SDS011;8503;52.472;13.344;2023-06-14T03:40:40;6.30;;;4.40;;
16770;SDS011;8503;52.472;13.344;2023-06-14T03:41:23;7.40;;;4.40;;
16770;SDS011;8503;52.472;13.344;2023-06-14T03:42:07;8.90;;;4.38;;
16770;SDS011;8503;52.472;13.344;2023-06-14T03:42:50;9.32;;;5.55;;
16770;SDS011;8503;52.472;13.344;2023-06-14T03:43:34;7.40;;;4.75;;
16770;SDS011;8503;52.472;13.344;2023-06-14T03:44:18;8.10;;;5.32;;
16770;SDS011;8503;52.472;13.344;2023-06-14T03:45:03;10.65;;;5.30;;
16770;SDS011;8503;52.472;13.344;2023-06-14T03:45:47;6.53;;;4.95;;
16770;SDS011;8503;52.472;13.344;2023-06-14T03:46:30;11.85;;;4.95;;
16770;SDS011;8503;52.472;13.344;2023-06-14T03:47:14;11.15;;;6.07;;
16770;SDS011;8503;52.472;13.344;2023-06-14T03:47:57;7.10;;;4.90;;
16770;SDS011;8503;52.472;13.344;2023-06-14T03:48:42;9.02;;;5.70;;
16770;SDS011;8503;52.472;13.344;2023-06-14T03:49:25;8.57;;;5.15;;
16770;SDS011;8503;52.472;13.344;2023-06-14T03:50:09;8.70;;;5.13;;
16770;SDS011;8503;52.472;13.344;2023-06-14T03:50:52;10.57;;;5.72;;
16770;SDS011;8503;52.472;13.344;2023-06-14T03:51:39;11.30;;;5.22;;
16770;SDS011;8503;52.472;13.344;2023-06-14T03:52:23;11.45;;;5.38;;
16770;SDS011;8503;52.472;13.344;2023-06-14T03:53:06;12.70;;;5.00;;
16770;SDS011;8503;52.472;13.344;2023-06-14T03:53:50;10.40;;;5.78;;
16770;SDS011;8503;52.472;13.344;2023-06-14T03:54:53;7.65;;;5.53;;
16770;SDS011;8503;52.472;13.344;2023-06-14T03:55:58;7.53;;;5.20;;
16770;SDS011;8503;52.472;13.344;2023-06-14T03:56:41;10.95;;;5.28;;
16770;SDS011;8503;52.472;13.344;2023-06-14T03:57:25;8.90;;;5.40;;
16770;SDS011;8503;52.472;13.344;2023-06-14T03:58:08;12.98;;;6.00;;
16770;SDS011;8503;52.472;13.344;2023-06-14T03:58:50;7.80;;;5.20;;
16770;SDS011;8503;52.472;13.344;2023-06-14T03:59:34;10.25;;;5.43;;
16770;SDS011;8503;52.472;13.344;2023-06-14T04:00:17;8.73;;;5.65;;
16770;SDS011;8503;52.472;13.344;2023-06-14T04:01:02;9.05;;;5.95;;
16770;SDS011;8503;52.472;13.344;2023-06-14T04:01:44;8.32;;;5.38;;
16770;SDS011;8503;52.472;13.344;2023-06-14T04:02:28;10.05;;;5.75;;
16770;SDS011;8503;52.472;13.344;2023-06-14T04:03:11;8.18;;;5.97;;
16770;SDS011;8503;52.472;13.344;2023-06-14T04:03:56;12.43;;;5.80;;
16770;SDS011;8503;52.472;13.344;2023-06-14T04:04:39;10.45;;;6.18;;
16770;SDS011;8503;52.472;13.344;2023-06-14T04:05:25;12.20;;;6.07;;
16770;SDS011;8503;52.472;13.344;2023-06-14T04:06:09;12.82;;;6.00;;
16770;SDS011;8503;52.472;13.344;2023-06-14T04:06:53;11.85;;;5.70;;
16770;SDS011;8503;52.472;13.344;2023-06-14T04:07:35;7.82;;;5.38;;
16770;SDS011;8503;52.472;13.344;2023-06-14T04:08:21;9.60;;;5.88;;
16770;SDS011;8503;52.472;13.344;2023-06-14T04:09:04;8.13;;;5.60;;
16770;SDS011;8503;52.472;13.344;2023-06-14T04:09:50;11.07;;;5.43;;
16770;SDS011;8503;52.472;13.344;2023-06-14T04:10:33;11.13;;;5.47;;
16770;SDS011;8503;52.472;13.344;2023-06-14T04:11:18;10.68;;;5.78;;
16770;SDS011;8503;52.472;13.344;2023-06-14T04:12:01;9.05;;;5.45;;
16770;SDS011;8503;52.472;13.344;2023-06-14T04:12:49;9.30;;;6.10;;
16770;SDS011;8503;52.472;13.344;2023-06-14T04:13:33;7.53;;;5.40;;
16770;SDS011;8503;52.472;13.344;2023-06-14T04:14:17;5.78;;;4.38;;
16770;SDS011;8503;52.472;13.344;2023-06-14T04:15:00;8.35;;;5.35;;
16770;SDS011;8503;52.472;13.344;2023-06-14T04:16:01;4.43;;;3.95;;
16770;SDS011;8503;52.472;13.344;2023-06-14T04:16:46;8.07;;;5.22;;
16770;SDS011;8503;52.472;13.344;2023-06-14T04:17:30;9.68;;;5.65;;
16770;SDS011;8503;52.472;13.344;2023-06-14T04:18:14;6.82;;;4.30;;
16770;SDS011;8503;52.472;13.344;2023-06-14T04:18:59;7.13;;;5.13;;
16770;SDS011;8503;52.472;13.344;2023-06-14T04:19:41;8.45;;;5.68;;
16770;SDS011;8503;52.472;13.344;2023-06-14T04:20:25;10.95;;;5.95;;
16770;SDS011;8503;52.472;13.344;2023-06-14T04:21:08;9.75;;;6.10;;
16770;SDS011;8503;52.472;13.344;2023-06-14T04:21:52;10.45;;;5.15;;
16770;SDS011;8503;52.472;13.344;2023-06-14T04:22:35;9.27;;;5.38;;
16770;SDS011;8503;52.472;13.344;2023-06-14T04:23:19;7.53;;;4.53;;
16770;SDS011;8503;52.472;13.344;2023-06-14T04:24:03;9.13;;;5.50;;
16770;SDS011;8503;52.472;13.344;2023-06-14T04:24:48;4.10;;;3.55;;
16770;SDS011;8503;52.472;13.344;2023-06-14T04:25:45;8.38;;;5.60;;
16770;SDS011;8503;52.472;13.344;2023-06-14T04:26:32;8.15;;;5.90;;
16770;SDS011;8503;52.472;13.344;2023-06-14T04:27:15;7.38;;;5.18;;
16770;SDS011;8503;52.472;13.344;2023-06-14T04:28:03;9.13;;;5.55;;
16770;SDS011;8503;52.472;13.344;2023-06-14T04:28:46;10.63;;;5.70;;
16770;SDS011;8503;52.472;13.344;2023-06-14T04:29:30;7.93;;;6.50;;